Time,TemperatureF,DewpointF,PressureIn,WindDirection,WindDirectionDegrees,WindSpeedMPH,WindSpeedGustMPH,Humidity,HourlyPrecipIn,Conditions,Clouds,dailyrainin,SoftwareType,DateUTC
2013-02-15 00:00:00,62.2,61.9,29.84,NNE,22,4.7,-999.0,99,-99.99,,,0.00,Acu-Link.com,2013-02-15 05:00:00,
2013-02-15 00:16:00,62.4,62.1,29.84,NE,45,7.3,-999.0,99,-99.99,,,0.00,Acu-Link.com,2013-02-15 05:16:00,
2013-02-15 00:31:00,62.6,62.3,29.84,NNE,22,3.7,-999.0,99,-99.99,,,0.00,Acu-Link.com,2013-02-15 05:31:00,
2013-02-15 00:46:00,62.6,62.3,29.82,ENE,67,4.2,-999.0,99,-99.99,,,0.00,Acu-Link.com,2013-02-15 05:46:00,
2013-02-15 01:01:00,62.8,62.5,29.84,NE,45,1.1,-999.0,99,-99.99,,,0.00,Acu-Link.com,2013-02-15 06:01:00,
2013-02-15 01:17:00,63.0,62.7,29.83,NNE,22,4.2,-999.0,99,-99.99,,,0.00,Acu-Link.com,2013-02-15 06:17:00,
2013-02-15 01:32:00,63.1,62.8,29.82,NNE,22,1.7,-999.0,99,-99.99,,,0.00,Acu-Link.com,2013-02-15 06:32:00,
2013-02-15 01:47:00,63.3,63.0,29.82,NNE,22,1.7,-999.0,99,-99.99,,,0.00,Acu-Link.com,2013-02-15 06:47:00,
2013-02-15 02:02:00,63.7,63.4,29.81,NE,45,1.7,-999.0,99,-99.99,,,0.01,Acu-Link.com,2013-02-15 07:02:00,
2013-02-15 02:17:00,64.6,64.3,29.82,ENE,67,4.7,-999.0,99,-99.99,,,0.02,Acu-Link.com,2013-02-15 07:17:00,
2013-02-15 02:32:00,64.8,64.5,29.82,ENE,67,0.0,-999.0,99,-99.99,,,0.02,Acu-Link.com,2013-02-15 07:32:00,
2013-02-15 02:47:00,65.3,65.0,29.81,ENE,67,8.9,-999.0,99,-99.99,,,0.03,Acu-Link.com,2013-02-15 07:47:00,
2013-02-15 03:02:00,65.5,65.2,29.82,NE,45,6.3,-999.0,99,-99.99,,,0.04,Acu-Link.com,2013-02-15 08:02:00,
2013-02-15 03:18:00,65.7,65.4,29.81,NE,45,5.3,-999.0,99,-99.99,,,0.04,Acu-Link.com,2013-02-15 08:18:00,
2013-02-15 03:33:00,65.5,65.2,29.81,NE,45,3.2,-999.0,99,-99.99,,,0.04,Acu-Link.com,2013-02-15 08:33:00,
2013-02-15 03:48:00,65.5,65.2,29.81,ENE,67,5.3,-999.0,99,-99.99,,,0.04,Acu-Link.com,2013-02-15 08:48:00,
2013-02-15 04:18:00,65.5,65.2,29.81,NE,45,5.3,-999.0,99,-99.99,,,0.04,Acu-Link.com,2013-02-15 09:18:00,
2013-02-15 04:33:00,65.5,65.2,29.81,ENE,67,4.2,-999.0,99,-99.99,,,0.04,Acu-Link.com,2013-02-15 09:33:00,
2013-02-15 04:48:00,65.7,65.4,29.81,East,90,3.2,-999.0,99,-99.99,,,0.04,Acu-Link.com,2013-02-15 09:48:00,
2013-02-15 05:03:00,65.7,65.4,29.82,NNE,22,2.7,-999.0,99,-99.99,,,0.04,Acu-Link.com,2013-02-15 10:03:00,
2013-02-15 05:18:00,65.7,65.4,29.82,NNE,22,3.2,-999.0,99,-99.99,,,0.05,Acu-Link.com,2013-02-15 10:18:00,
2013-02-15 05:34:00,65.3,65.0,29.82,NNE,22,4.7,-999.0,99,-99.99,,,0.09,Acu-Link.com,2013-02-15 10:34:00,
2013-02-15 05:49:00,65.1,64.8,29.82,ESE,112,2.7,-999.0,99,-99.99,,,0.10,Acu-Link.com,2013-02-15 10:49:00,
2013-02-15 06:04:00,64.9,64.6,29.82,ESE,112,2.2,-999.0,99,-99.99,,,0.10,Acu-Link.com,2013-02-15 11:04:00,
2013-02-15 06:19:00,64.9,64.6,29.82,NE,45,3.7,-999.0,99,-99.99,,,0.10,Acu-Link.com,2013-02-15 11:19:00,
2013-02-15 06:34:00,65.1,64.8,29.83,NNE,22,4.2,-999.0,99,-99.99,,,0.10,Acu-Link.com,2013-02-15 11:34:00,
2013-02-15 06:49:00,65.3,65.0,29.84,NE,45,4.2,-999.0,99,-99.99,,,0.10,Acu-Link.com,2013-02-15 11:49:00,
2013-02-15 07:04:00,65.7,65.4,29.83,East,90,3.2,-999.0,99,-99.99,,,0.10,Acu-Link.com,2013-02-15 12:04:00,
2013-02-15 07:19:00,65.8,65.5,29.83,NE,45,5.3,-999.0,99,-99.99,,,0.10,Acu-Link.com,2013-02-15 12:19:00,
2013-02-15 07:34:00,65.7,65.4,29.84,ENE,67,3.7,-999.0,99,-99.99,,,0.10,Acu-Link.com,2013-02-15 12:34:00,
2013-02-15 07:50:00,65.7,65.4,29.84,East,90,4.7,-999.0,99,-99.99,,,0.10,Acu-Link.com,2013-02-15 12:50:00,
2013-02-15 08:05:00,66.0,65.7,29.86,ESE,112,4.2,-999.0,99,-99.99,,,0.10,Acu-Link.com,2013-02-15 13:05:00,
2013-02-15 08:20:00,66.2,65.9,29.85,NE,45,5.3,-999.0,99,-99.99,,,0.10,Acu-Link.com,2013-02-15 13:20:00,
2013-02-15 08:35:00,66.4,66.1,29.85,East,90,2.7,-999.0,99,-99.99,,,0.10,Acu-Link.com,2013-02-15 13:35:00,
2013-02-15 08:50:00,66.6,66.3,29.85,East,90,3.7,-999.0,99,-99.99,,,0.10,Acu-Link.com,2013-02-15 13:50:00,
2013-02-15 09:05:00,66.7,66.4,29.84,East,90,5.3,-999.0,99,-99.99,,,0.12,Acu-Link.com,2013-02-15 14:05:00,
2013-02-15 09:20:00,67.3,67.0,29.85,ESE,112,3.7,-999.0,99,-99.99,,,0.13,Acu-Link.com,2013-02-15 14:20:00,
2013-02-15 09:35:00,68.0,67.7,29.86,East,90,1.7,-999.0,99,-99.99,,,0.13,Acu-Link.com,2013-02-15 14:35:00,
2013-02-15 09:50:00,68.7,67.5,29.86,NE,45,3.7,-999.0,96,-99.99,,,0.13,Acu-Link.com,2013-02-15 14:50:00,
2013-02-15 10:06:00,69.4,66.7,29.87,NE,45,2.7,-999.0,91,-99.99,,,0.13,Acu-Link.com,2013-02-15 15:06:00,
2013-02-15 10:21:00,71.2,66.8,29.87,NE,45,6.3,-999.0,86,-99.99,,,0.13,Acu-Link.com,2013-02-15 15:21:00,
2013-02-15 10:36:00,71.2,66.5,29.87,NNE,22,2.7,-999.0,85,-99.99,,,0.13,Acu-Link.com,2013-02-15 15:36:00,
2013-02-15 10:51:00,71.4,66.3,29.87,North,0,4.7,-999.0,84,-99.99,,,0.13,Acu-Link.com,2013-02-15 15:51:00,
2013-02-15 11:06:00,72.1,65.9,29.87,NNW,337,3.2,-999.0,81,-99.99,,,0.13,Acu-Link.com,2013-02-15 16:06:00,
2013-02-15 11:21:00,71.8,66.0,29.87,NNW,337,3.2,-999.0,82,-99.99,,,0.13,Acu-Link.com,2013-02-15 16:21:00,
2013-02-15 11:36:00,71.4,65.3,29.86,NNE,22,3.2,-999.0,81,-99.99,,,0.13,Acu-Link.com,2013-02-15 16:36:00,
2013-02-15 11:51:00,71.8,65.6,29.86,NNW,337,2.2,-999.0,81,-99.99,,,0.13,Acu-Link.com,2013-02-15 16:51:00,
2013-02-15 12:06:00,71.8,66.3,29.86,NW,315,4.2,-999.0,83,-99.99,,,0.13,Acu-Link.com,2013-02-15 17:06:00,
2013-02-15 12:22:00,70.9,66.2,29.86,WNW,292,3.2,-999.0,85,-99.99,,,0.13,Acu-Link.com,2013-02-15 17:22:00,
2013-02-15 12:37:00,69.1,65.1,29.85,NNW,337,6.8,-999.0,87,-99.99,,,0.13,Acu-Link.com,2013-02-15 17:37:00,
2013-02-15 12:52:00,68.4,65.7,29.85,West,270,3.7,-999.0,91,-99.99,,,0.14,Acu-Link.com,2013-02-15 17:52:00,
2013-02-15 13:07:00,68.2,66.1,29.85,WNW,292,5.3,-999.0,93,-99.99,,,0.14,Acu-Link.com,2013-02-15 18:07:00,
2013-02-15 13:22:00,69.3,67.5,29.83,West,270,2.7,-999.0,94,-99.99,,,0.14,Acu-Link.com,2013-02-15 18:22:00,
2013-02-15 13:37:00,68.9,67.1,29.82,NW,315,5.8,-999.0,94,-99.99,,,0.14,Acu-Link.com,2013-02-15 18:37:00,
2013-02-15 13:52:00,68.0,66.5,29.82,NNW,337,4.7,-999.0,95,-99.99,,,0.14,Acu-Link.com,2013-02-15 18:52:00,
2013-02-15 14:07:00,67.8,66.0,29.81,NNW,337,4.2,-999.0,94,-99.99,,,0.14,Acu-Link.com,2013-02-15 19:07:00,
2013-02-15 14:22:00,68.2,66.4,29.82,NNE,22,4.7,-999.0,94,-99.99,,,0.16,Acu-Link.com,2013-02-15 19:22:00,
2013-02-15 14:38:00,67.6,66.1,29.81,WNW,292,4.2,-999.0,95,-99.99,,,0.16,Acu-Link.com,2013-02-15 19:38:00,
2013-02-15 14:53:00,67.3,66.7,29.82,NW,315,5.3,-999.0,98,-99.99,,,0.18,Acu-Link.com,2013-02-15 19:53:00,
2013-02-15 15:08:00,66.9,66.0,29.81,NW,315,0.0,-999.0,97,-99.99,,,0.19,Acu-Link.com,2013-02-15 20:08:00,
2013-02-15 15:23:00,66.7,65.5,29.81,WNW,292,1.7,-999.0,96,-99.99,,,0.22,Acu-Link.com,2013-02-15 20:23:00,
2013-02-15 15:38:00,66.9,66.0,29.80,West,270,2.2,-999.0,97,-99.99,,,0.23,Acu-Link.com,2013-02-15 20:38:00,
2013-02-15 15:53:00,66.9,66.3,29.80,West,270,2.7,-999.0,98,-99.99,,,0.24,Acu-Link.com,2013-02-15 20:53:00,
2013-02-15 16:09:00,66.6,66.3,29.80,West,270,2.2,-999.0,99,-99.99,,,0.24,Acu-Link.com,2013-02-15 21:09:00,
2013-02-15 16:24:00,66.4,66.1,29.80,West,270,2.2,-999.0,99,-99.99,,,0.27,Acu-Link.com,2013-02-15 21:24:00,
2013-02-15 16:39:00,66.4,66.1,29.80,West,270,1.7,-999.0,99,-99.99,,,0.29,Acu-Link.com,2013-02-15 21:39:00,
2013-02-15 16:54:00,65.7,64.8,29.81,WNW,292,2.2,-999.0,97,-99.99,,,0.30,Acu-Link.com,2013-02-15 21:54:00,
2013-02-15 17:09:00,65.7,65.1,29.82,WNW,292,2.7,-999.0,98,-99.99,,,0.30,Acu-Link.com,2013-02-15 22:09:00,
2013-02-15 17:24:00,65.8,65.5,29.81,WNW,292,1.7,-999.0,99,-99.99,,,0.30,Acu-Link.com,2013-02-15 22:24:00,
2013-02-15 17:39:00,65.8,65.5,29.80,WNW,292,2.2,-999.0,99,-99.99,,,0.30,Acu-Link.com,2013-02-15 22:39:00,
2013-02-15 17:55:00,65.5,65.2,29.81,NNW,337,3.2,-999.0,99,-99.99,,,0.30,Acu-Link.com,2013-02-15 22:55:00,
2013-02-15 18:10:00,65.1,64.8,29.81,NE,45,3.7,-999.0,99,-99.99,,,0.30,Acu-Link.com,2013-02-15 23:10:00,
2013-02-15 18:25:00,64.9,64.6,29.81,NE,45,3.2,-999.0,99,-99.99,,,0.31,Acu-Link.com,2013-02-15 23:25:00,
2013-02-15 18:40:00,64.6,64.3,29.80,NE,45,2.7,-999.0,99,-99.99,,,0.31,Acu-Link.com,2013-02-15 23:40:00,
2013-02-15 18:55:00,64.6,64.3,29.80,NE,45,3.2,-999.0,99,-99.99,,,0.31,Acu-Link.com,2013-02-15 23:55:00,
2013-02-15 19:10:00,64.4,64.1,29.80,NE,45,2.7,-999.0,99,-99.99,,,0.31,Acu-Link.com,2013-02-16 00:10:00,
2013-02-15 19:25:00,64.4,64.1,29.80,North,0,2.2,-999.0,99,-99.99,,,0.31,Acu-Link.com,2013-02-16 00:25:00,
2013-02-15 19:40:00,64.4,64.1,29.79,NNE,22,3.2,-999.0,99,-99.99,,,0.31,Acu-Link.com,2013-02-16 00:40:00,
2013-02-15 19:55:00,64.4,64.1,29.79,NE,45,0.0,-999.0,99,-99.99,,,0.31,Acu-Link.com,2013-02-16 00:55:00,
2013-02-15 20:11:00,64.4,64.1,29.81,NNE,22,2.2,-999.0,99,-99.99,,,0.31,Acu-Link.com,2013-02-16 01:11:00,
2013-02-15 20:26:00,64.4,64.1,29.81,NNW,337,0.0,-999.0,99,-99.99,,,0.31,Acu-Link.com,2013-02-16 01:26:00,
2013-02-15 20:41:00,64.4,64.1,29.82,NNW,337,0.0,-999.0,99,-99.99,,,0.31,Acu-Link.com,2013-02-16 01:41:00,
2013-02-15 20:56:00,64.2,63.9,29.82,NNW,337,0.0,-999.0,99,-99.99,,,0.32,Acu-Link.com,2013-02-16 01:56:00,
2013-02-15 21:11:00,64.2,63.9,29.82,NNW,337,0.0,-999.0,99,-99.99,,,0.32,Acu-Link.com,2013-02-16 02:11:00,
2013-02-15 21:26:00,64.2,63.9,29.82,NNW,337,0.0,-999.0,99,-99.99,,,0.32,Acu-Link.com,2013-02-16 02:26:00,
2013-02-15 21:41:00,64.2,63.9,29.81,NNW,337,0.0,-999.0,99,-99.99,,,0.32,Acu-Link.com,2013-02-16 02:41:00,
2013-02-15 21:56:00,64.0,63.7,29.81,NNW,337,0.0,-999.0,99,-99.99,,,0.32,Acu-Link.com,2013-02-16 02:56:00,
2013-02-15 22:11:00,64.0,63.7,29.81,NNW,337,2.2,-999.0,99,-99.99,,,0.32,Acu-Link.com,2013-02-16 03:11:00,
2013-02-15 22:27:00,64.0,63.7,29.81,NNW,337,2.7,-999.0,99,-99.99,,,0.32,Acu-Link.com,2013-02-16 03:27:00,
2013-02-15 22:42:00,63.9,63.6,29.81,WNW,292,2.7,-999.0,99,-99.99,,,0.32,Acu-Link.com,2013-02-16 03:42:00,
2013-02-15 22:57:00,63.9,63.6,29.80,NNW,337,3.2,-999.0,99,-99.99,,,0.32,Acu-Link.com,2013-02-16 03:57:00,
2013-02-15 23:12:00,63.9,63.6,29.80,WNW,292,2.2,-999.0,99,-99.99,,,0.32,Acu-Link.com,2013-02-16 04:12:00,
2013-02-15 23:27:00,63.9,63.6,29.80,WNW,292,0.0,-999.0,99,-99.99,,,0.32,Acu-Link.com,2013-02-16 04:27:00,
2013-02-15 23:42:00,63.9,63.6,29.79,WNW,292,0.0,-999.0,99,-99.99,,,0.32,Acu-Link.com,2013-02-16 04:42:00,
2013-02-15 23:57:00,63.9,63.6,29.80,WNW,292,2.2,-999.0,99,-99.99,,,0.32,Acu-Link.com,2013-02-16 04:57:00,